sensor_id;sensor_type;location;lat;lon;timestamp;P1;durP1;ratioP1;P2;durP2;ratioP2
14205;SDS011;7186;48.800;9.216;2022-07-29T00:02:17;8.70;;;6.47;;
14205;SDS011;7186;48.800;9.216;2022-07-29T00:04:42;6.57;;;5.77;;
14205;SDS011;7186;48.800;9.216;2022-07-29T00:07:07;6.90;;;5.67;;
14205;SDS011;7186;48.800;9.216;2022-07-29T00:09:33;6.90;;;5.20;;
14205;SDS011;7186;48.800;9.216;2022-07-29T00:11:59;9.73;;;6.50;;
14205;SDS011;7186;48.800;9.216;2022-07-29T00:14:24;7.50;;;6.27;;
14205;SDS011;7186;48.800;9.216;2022-07-29T00:16:50;9.03;;;6.20;;
14205;SDS011;7186;48.800;9.216;2022-07-29T00:19:15;8.83;;;6.87;;
14205;SDS011;7186;48.800;9.216;2022-07-29T00:21:40;7.27;;;5.63;;
14205;SDS011;7186;48.800;9.216;2022-07-29T00:24:05;7.33;;;5.47;;
14205;SDS011;7186;48.800;9.216;2022-07-29T00:26:31;7.50;;;5.73;;
14205;SDS011;7186;48.800;9.216;2022-07-29T00:29:00;7.53;;;5.93;;
14205;SDS011;7186;48.800;9.216;2022-07-29T00:31:26;8.07;;;5.77;;
14205;SDS011;7186;48.800;9.216;2022-07-29T00:33:51;7.07;;;6.37;;
14205;SDS011;7186;48.800;9.216;2022-07-29T00:36:16;7.10;;;6.33;;
14205;SDS011;7186;48.800;9.216;2022-07-29T00:38:42;8.73;;;6.20;;
14205;SDS011;7186;48.800;9.216;2022-07-29T00:41:10;7.10;;;6.40;;
14205;SDS011;7186;48.800;9.216;2022-07-29T00:43:35;8.47;;;7.40;;
14205;SDS011;7186;48.800;9.216;2022-07-29T00:46:00;7.47;;;6.70;;
14205;SDS011;7186;48.800;9.216;2022-07-29T00:48:25;10.20;;;6.97;;
14205;SDS011;7186;48.800;9.216;2022-07-29T00:50:51;7.07;;;6.37;;
14205;SDS011;7186;48.800;9.216;2022-07-29T00:53:16;7.10;;;5.90;;
14205;SDS011;7186;48.800;9.216;2022-07-29T00:55:41;9.47;;;6.10;;
14205;SDS011;7186;48.800;9.216;2022-07-29T00:58:06;8.33;;;5.87;;
14205;SDS011;7186;48.800;9.216;2022-07-29T01:00:32;12.07;;;6.30;;
14205;SDS011;7186;48.800;9.216;2022-07-29T01:02:57;7.90;;;6.93;;
14205;SDS011;7186;48.800;9.216;2022-07-29T01:05:23;11.00;;;7.10;;
14205;SDS011;7186;48.800;9.216;2022-07-29T01:07:49;10.47;;;6.80;;
14205;SDS011;7186;48.800;9.216;2022-07-29T01:10:16;9.03;;;8.10;;
14205;SDS011;7186;48.800;9.216;2022-07-29T01:12:43;9.73;;;8.13;;
14205;SDS011;7186;48.800;9.216;2022-07-29T01:15:09;8.73;;;7.80;;
14205;SDS011;7186;48.800;9.216;2022-07-29T01:17:43;11.87;;;8.50;;
14205;SDS011;7186;48.800;9.216;2022-07-29T01:30:12;8.90;;;7.33;;
14205;SDS011;7186;48.800;9.216;2022-07-29T01:32:37;9.47;;;7.13;;
14205;SDS011;7186;48.800;9.216;2022-07-29T01:40:19;11.00;;;6.90;;
14205;SDS011;7186;48.800;9.216;2022-07-29T01:42:48;9.63;;;7.13;;
14205;SDS011;7186;48.800;9.216;2022-07-29T01:48:02;8.53;;;7.40;;
14205;SDS011;7186;48.800;9.216;2022-07-29T01:50:31;8.57;;;6.90;;
14205;SDS011;7186;48.800;9.216;2022-07-29T01:53:01;8.43;;;7.17;;
14205;SDS011;7186;48.800;9.216;2022-07-29T01:55:28;12.13;;;7.30;;
14205;SDS011;7186;48.800;9.216;2022-07-29T01:57:54;11.50;;;7.33;;
14205;SDS011;7186;48.800;9.216;2022-07-29T02:00:21;9.27;;;7.13;;
14205;SDS011;7186;48.800;9.216;2022-07-29T02:02:47;8.27;;;6.73;;
14205;SDS011;7186;48.800;9.216;2022-07-29T02:05:15;8.73;;;7.27;;
14205;SDS011;7186;48.800;9.216;2022-07-29T02:07:41;10.20;;;6.63;;
14205;SDS011;7186;48.800;9.216;2022-07-29T02:10:07;9.60;;;6.83;;
14205;SDS011;7186;48.800;9.216;2022-07-29T02:12:32;7.43;;;6.50;;
14205;SDS011;7186;48.800;9.216;2022-07-29T02:14:59;9.33;;;6.53;;
14205;SDS011;7186;48.800;9.216;2022-07-29T02:17:42;7.80;;;6.57;;
14205;SDS011;7186;48.800;9.216;2022-07-29T02:20:08;8.90;;;5.90;;
14205;SDS011;7186;48.800;9.216;2022-07-29T02:22:35;8.50;;;7.00;;
14205;SDS011;7186;48.800;9.216;2022-07-29T02:25:02;8.10;;;6.27;;
14205;SDS011;7186;48.800;9.216;2022-07-29T02:27:27;6.67;;;5.97;;
14205;SDS011;7186;48.800;9.216;2022-07-29T02:29:53;9.67;;;6.87;;
14205;SDS011;7186;48.800;9.216;2022-07-29T02:32:19;7.03;;;6.33;;
14205;SDS011;7186;48.800;9.216;2022-07-29T02:34:46;9.97;;;6.77;;
14205;SDS011;7186;48.800;9.216;2022-07-29T02:37:12;7.10;;;6.07;;
14205;SDS011;7186;48.800;9.216;2022-07-29T02:39:38;9.27;;;5.83;;
14205;SDS011;7186;48.800;9.216;2022-07-29T02:42:05;5.63;;;5.13;;
14205;SDS011;7186;48.800;9.216;2022-07-29T02:44:31;5.90;;;5.13;;
14205;SDS011;7186;48.800;9.216;2022-07-29T02:49:44;7.87;;;5.53;;
14205;SDS011;7186;48.800;9.216;2022-07-29T02:52:21;6.97;;;5.67;;
14205;SDS011;7186;48.800;9.216;2022-07-29T02:54:58;5.43;;;4.93;;
14205;SDS011;7186;48.800;9.216;2022-07-29T02:59:51;7.43;;;5.03;;
14205;SDS011;7186;48.800;9.216;2022-07-29T03:02:17;5.93;;;5.10;;
14205;SDS011;7186;48.800;9.216;2022-07-29T03:04:43;5.83;;;5.30;;
14205;SDS011;7186;48.800;9.216;2022-07-29T03:07:09;6.30;;;5.70;;
14205;SDS011;7186;48.800;9.216;2022-07-29T03:09:35;8.20;;;6.00;;
14205;SDS011;7186;48.800;9.216;2022-07-29T03:12:01;6.23;;;5.37;;
14205;SDS011;7186;48.800;9.216;2022-07-29T03:14:26;6.27;;;5.17;;
14205;SDS011;7186;48.800;9.216;2022-07-29T03:16:52;5.67;;;5.07;;
14205;SDS011;7186;48.800;9.216;2022-07-29T03:19:18;5.63;;;4.97;;
14205;SDS011;7186;48.800;9.216;2022-07-29T03:21:44;8.63;;;5.37;;
14205;SDS011;7186;48.800;9.216;2022-07-29T03:24:09;5.80;;;5.23;;
14205;SDS011;7186;48.800;9.216;2022-07-29T03:26:34;5.77;;;5.17;;
14205;SDS011;7186;48.800;9.216;2022-07-29T03:28:59;7.30;;;5.30;;
14205;SDS011;7186;48.800;9.216;2022-07-29T03:31:25;7.57;;;5.93;;
14205;SDS011;7186;48.800;9.216;2022-07-29T03:33:50;6.00;;;5.07;;
14205;SDS011;7186;48.800;9.216;2022-07-29T03:36:15;6.43;;;5.07;;
14205;SDS011;7186;48.800;9.216;2022-07-29T03:38:41;6.47;;;5.30;;
14205;SDS011;7186;48.800;9.216;2022-07-29T03:41:07;7.63;;;5.90;;
14205;SDS011;7186;48.800;9.216;2022-07-29T03:43:34;8.27;;;6.20;;
14205;SDS011;7186;48.800;9.216;2022-07-29T03:46:00;9.47;;;6.33;;
14205;SDS011;7186;48.800;9.216;2022-07-29T03:48:27;8.53;;;6.37;;
14205;SDS011;7186;48.800;9.216;2022-07-29T03:50:54;8.13;;;5.70;;
14205;SDS011;7186;48.800;9.216;2022-07-29T03:53:20;6.93;;;5.70;;
14205;SDS011;7186;48.800;9.216;2022-07-29T03:55:46;6.20;;;5.60;;
14205;SDS011;7186;48.800;9.216;2022-07-29T03:58:12;8.07;;;5.87;;
14205;SDS011;7186;48.800;9.216;2022-07-29T04:00:38;8.77;;;6.13;;
14205;SDS011;7186;48.800;9.216;2022-07-29T04:03:03;9.50;;;6.60;;
14205;SDS011;7186;48.800;9.216;2022-07-29T04:05:28;9.63;;;7.30;;
14205;SDS011;7186;48.800;9.216;2022-07-29T04:07:54;6.53;;;5.93;;
14205;SDS011;7186;48.800;9.216;2022-07-29T04:10:19;7.03;;;6.33;;
14205;SDS011;7186;48.800;9.216;2022-07-29T04:12:44;7.57;;;6.27;;
14205;SDS011;7186;48.800;9.216;2022-07-29T04:15:10;8.20;;;6.10;;
14205;SDS011;7186;48.800;9.216;2022-07-29T04:17:35;9.70;;;6.13;;
14205;SDS011;7186;48.800;9.216;2022-07-29T04:20:00;7.07;;;5.73;;
14205;SDS011;7186;48.800;9.216;2022-07-29T04:22:25;8.53;;;6.57;;
14205;SDS011;7186;48.800;9.216;2022-07-29T04:24:51;10.23;;;6.30;;
14205;SDS011;7186;48.800;9.216;2022-07-29T04:27:16;9.07;;;6.30;;
14205;SDS011;7186;48.800;9.216;2022-07-29T04:29:41;6.87;;;5.80;;
14205;SDS011;7186;48.800;9.216;2022-07-29T04:32:06;7.03;;;5.97;;
14205;SDS011;7186;48.800;9.216;2022-07-29T04:34:32;6.37;;;5.77;;
14205;SDS011;7186;48.800;9.216;2022-07-29T04:36:57;7.87;;;5.33;;
14205;SDS011;7186;48.800;9.216;2022-07-29T04:39:22;6.87;;;5.60;;
14205;SDS011;7186;48.800;9.216;2022-07-29T04:41:47;6.50;;;5.03;;
14205;SDS011;7186;48.800;9.216;2022-07-29T04:44:14;6.47;;;5.33;;
14205;SDS011;7186;48.800;9.216;2022-07-29T04:46:39;6.03;;;5.13;;
14205;SDS011;7186;48.800;9.216;2022-07-29T04:49:04;7.23;;;5.00;;
14205;SDS011;7186;48.800;9.216;2022-07-29T04:51:30;6.23;;;4.40;;
14205;SDS011;7186;48.800;9.216;2022-07-29T04:53:55;6.87;;;4.47;;
14205;SDS011;7186;48.800;9.216;2022-07-29T04:56:20;8.53;;;5.67;;
14205;SDS011;7186;48.800;9.216;2022-07-29T04:58:45;10.93;;;5.73;;
14205;SDS011;7186;48.800;9.216;2022-07-29T05:01:11;13.33;;;8.83;;
14205;SDS011;7186;48.800;9.216;2022-07-29T05:03:36;7.33;;;6.20;;
14205;SDS011;7186;48.800;9.216;2022-07-29T05:06:01;7.47;;;5.60;;
14205;SDS011;7186;48.800;9.216;2022-07-29T05:08:26;6.87;;;5.03;;
14205;SDS011;7186;48.800;9.216;2022-07-29T05:10:52;5.80;;;4.60;;
14205;SDS011;7186;48.800;9.216;2022-07-29T05:13:17;5.90;;;4.23;;
14205;SDS011;7186;48.800;9.216;2022-07-29T05:15:42;5.60;;;4.93;;
14205;SDS011;7186;48.800;9.216;2022-07-29T05:18:07;6.27;;;5.00;;
14205;SDS011;7186;48.800;9.216;2022-07-29T05:20:33;7.47;;;5.77;;
14205;SDS011;7186;48.800;9.216;2022-07-29T05:22:59;7.53;;;5.70;;
14205;SDS011;7186;48.800;9.216;2022-07-29T05:25:25;9.23;;;5.43;;
14205;SDS011;7186;48.800;9.216;2022-07-29T05:27:51;7.93;;;5.97;;
14205;SDS011;7186;48.800;9.216;2022-07-29T05:30:16;7.17;;;5.27;;
14205;SDS011;7186;48.800;9.216;2022-07-29T05:32:41;6.30;;;5.27;;
14205;SDS011;7186;48.800;9.216;2022-07-29T05:35:07;7.47;;;4.47;;
14205;SDS011;7186;48.800;9.216;2022-07-29T05:37:32;6.93;;;4.93;;
14205;SDS011;7186;48.800;9.216;2022-07-29T05:39:58;5.90;;;5.20;;
14205;SDS011;7186;48.800;9.216;2022-07-29T05:42:23;6.70;;;5.20;;
14205;SDS011;7186;48.800;9.216;2022-07-29T05:44:49;7.33;;;5.43;;
14205;SDS011;7186;48.800;9.216;2022-07-29T05:47:14;6.73;;;5.00;;
14205;SDS011;7186;48.800;9.216;2022-07-29T05:49:39;8.07;;;4.73;;
14205;SDS011;7186;48.800;9.216;2022-07-29T05:52:04;7.20;;;4.87;;
14205;SDS011;7186;48.800;9.216;2022-07-29T05:54:30;7.27;;;4.20;;
14205;SDS011;7186;48.800;9.216;2022-07-29T05:56:55;5.07;;;4.57;;
14205;SDS011;7186;48.800;9.216;2022-07-29T05:59:20;6.40;;;4.53;;
14205;SDS011;7186;48.800;9.216;2022-07-29T06:01:46;6.50;;;5.03;;
14205;SDS011;7186;48.800;9.216;2022-07-29T06:04:11;5.67;;;4.47;;
14205;SDS011;7186;48.800;9.216;2022-07-29T06:06:36;5.33;;;4.70;;
14205;SDS011;7186;48.800;9.216;2022-07-29T06:09:02;7.37;;;4.80;;
14205;SDS011;7186;48.800;9.216;2022-07-29T06:11:27;6.07;;;4.47;;
14205;SDS011;7186;48.800;9.216;2022-07-29T06:13:52;6.60;;;4.73;;
14205;SDS011;7186;48.800;9.216;2022-07-29T06:16:18;6.33;;;4.80;;
14205;SDS011;7186;48.800;9.216;2022-07-29T06:18:43;5.17;;;4.43;;
14205;SDS011;7186;48.800;9.216;2022-07-29T06:21:09;6.63;;;4.53;;
14205;SDS011;7186;48.800;9.216;2022-07-29T06:23:37;6.17;;;4.87;;
14205;SDS011;7186;48.800;9.216;2022-07-29T06:26:02;7.23;;;4.60;;
14205;SDS011;7186;48.800;9.216;2022-07-29T06:28:28;4.60;;;3.97;;
14205;SDS011;7186;48.800;9.216;2022-07-29T06:30:53;7.07;;;5.13;;
14205;SDS011;7186;48.800;9.216;2022-07-29T06:33:18;6.30;;;4.33;;
14205;SDS011;7186;48.800;9.216;2022-07-29T06:35:44;7.13;;;4.70;;
14205;SDS011;7186;48.800;9.216;2022-07-29T06:38:10;5.90;;;4.20;;
14205;SDS011;7186;48.800;9.216;2022-07-29T06:40:36;5.13;;;3.93;;
14205;SDS011;7186;48.800;9.216;2022-07-29T06:43:20;4.27;;;3.87;;
14205;SDS011;7186;48.800;9.216;2022-07-29T06:45:45;5.87;;;3.67;;
14205;SDS011;7186;48.800;9.216;2022-07-29T06:48:11;4.60;;;3.70;;
14205;SDS011;7186;48.800;9.216;2022-07-29T06:50:37;6.37;;;4.20;;
14205;SDS011;7186;48.800;9.216;2022-07-29T06:53:03;4.80;;;4.00;;
14205;SDS011;7186;48.800;9.216;2022-07-29T06:55:28;6.17;;;5.00;;
14205;SDS011;7186;48.800;9.216;2022-07-29T06:57:54;8.93;;;5.63;;
14205;SDS011;7186;48.800;9.216;2022-07-29T07:00:19;6.00;;;5.33;;
14205;SDS011;7186;48.800;9.216;2022-07-29T07:02:44;6.57;;;5.57;;
14205;SDS011;7186;48.800;9.216;2022-07-29T07:05:10;8.93;;;6.50;;
14205;SDS011;7186;48.800;9.216;2022-07-29T07:07:35;8.53;;;6.23;;
14205;SDS011;7186;48.800;9.216;2022-07-29T07:10:00;9.83;;;6.27;;
14205;SDS011;7186;48.800;9.216;2022-07-29T07:12:25;9.37;;;6.50;;
14205;SDS011;7186;48.800;9.216;2022-07-29T07:14:51;7.83;;;6.13;;
14205;SDS011;7186;48.800;9.216;2022-07-29T07:17:16;7.80;;;5.40;;
14205;SDS011;7186;48.800;9.216;2022-07-29T07:19:41;7.53;;;5.33;;
14205;SDS011;7186;48.800;9.216;2022-07-29T07:22:06;7.03;;;5.40;;
14205;SDS011;7186;48.800;9.216;2022-07-29T07:24:32;7.70;;;5.20;;
14205;SDS011;7186;48.800;9.216;2022-07-29T07:26:57;7.63;;;5.87;;
14205;SDS011;7186;48.800;9.216;2022-07-29T07:29:22;8.30;;;5.70;;
14205;SDS011;7186;48.800;9.216;2022-07-29T07:31:47;10.57;;;5.90;;
14205;SDS011;7186;48.800;9.216;2022-07-29T07:34:13;6.53;;;5.50;;
14205;SDS011;7186;48.800;9.216;2022-07-29T07:36:38;7.93;;;5.13;;
14205;SDS011;7186;48.800;9.216;2022-07-29T07:39:03;5.77;;;4.70;;
14205;SDS011;7186;48.800;9.216;2022-07-29T07:41:30;7.80;;;5.53;;
14205;SDS011;7186;48.800;9.216;2022-07-29T07:43:55;8.30;;;5.90;;
14205;SDS011;7186;48.800;9.216;2022-07-29T07:46:20;9.70;;;5.33;;
14205;SDS011;7186;48.800;9.216;2022-07-29T07:48:46;8.13;;;5.00;;
14205;SDS011;7186;48.800;9.216;2022-07-29T07:51:11;5.97;;;4.90;;
14205;SDS011;7186;48.800;9.216;2022-07-29T07:53:36;10.40;;;4.93;;
14205;SDS011;7186;48.800;9.216;2022-07-29T07:56:01;6.73;;;5.20;;
14205;SDS011;7186;48.800;9.216;2022-07-29T07:58:27;8.60;;;5.10;;
14205;SDS011;7186;48.800;9.216;2022-07-29T08:00:52;8.47;;;4.83;;
14205;SDS011;7186;48.800;9.216;2022-07-29T08:03:18;9.20;;;5.40;;
14205;SDS011;7186;48.800;9.216;2022-07-29T08:05:43;6.63;;;4.60;;
14205;SDS011;7186;48.800;9.216;2022-07-29T08:08:08;5.27;;;4.67;;
14205;SDS011;7186;48.800;9.216;2022-07-29T08:10:34;9.80;;;5.50;;
14205;SDS011;7186;48.800;9.216;2022-07-29T08:13:17;6.23;;;5.00;;
14205;SDS011;7186;48.800;9.216;2022-07-29T08:15:43;7.57;;;5.40;;
14205;SDS011;7186;48.800;9.216;2022-07-29T08:18:09;6.90;;;5.03;;
14205;SDS011;7186;48.800;9.216;2022-07-29T08:20:35;7.73;;;5.53;;
14205;SDS011;7186;48.800;9.216;2022-07-29T08:23:01;6.40;;;4.97;;
14205;SDS011;7186;48.800;9.216;2022-07-29T08:25:26;5.60;;;5.00;;
14205;SDS011;7186;48.800;9.216;2022-07-29T08:27:52;5.43;;;4.80;;
14205;SDS011;7186;48.800;9.216;2022-07-29T08:30:17;7.03;;;5.30;;
14205;SDS011;7186;48.800;9.216;2022-07-29T08:32:42;5.93;;;5.07;;
14205;SDS011;7186;48.800;9.216;2022-07-29T08:35:08;6.40;;;5.67;;
14205;SDS011;7186;48.800;9.216;2022-07-29T08:37:34;7.80;;;5.50;;
14205;SDS011;7186;48.800;9.216;2022-07-29T08:39:59;7.13;;;5.27;;
14205;SDS011;7186;48.800;9.216;2022-07-29T08:42:25;6.40;;;5.30;;
14205;SDS011;7186;48.800;9.216;2022-07-29T08:44:51;8.50;;;5.27;;
14205;SDS011;7186;48.800;9.216;2022-07-29T08:47:17;7.90;;;5.33;;
14205;SDS011;7186;48.800;9.216;2022-07-29T08:49:42;6.07;;;5.00;;
14205;SDS011;7186;48.800;9.216;2022-07-29T08:52:09;6.20;;;5.40;;
14205;SDS011;7186;48.800;9.216;2022-07-29T08:54:36;6.53;;;4.63;;
14205;SDS011;7186;48.800;9.216;2022-07-29T08:57:01;9.40;;;5.23;;
14205;SDS011;7186;48.800;9.216;2022-07-29T08:59:27;8.77;;;5.60;;
14205;SDS011;7186;48.800;9.216;2022-07-29T09:01:53;12.90;;;5.40;;
14205;SDS011;7186;48.800;9.216;2022-07-29T09:04:19;5.90;;;5.30;;
14205;SDS011;7186;48.800;9.216;2022-07-29T09:06:45;6.07;;;5.00;;
14205;SDS011;7186;48.800;9.216;2022-07-29T09:09:12;6.70;;;5.83;;
14205;SDS011;7186;48.800;9.216;2022-07-29T09:11:38;8.00;;;5.80;;
14205;SDS011;7186;48.800;9.216;2022-07-29T09:14:04;7.93;;;6.00;;
14205;SDS011;7186;48.800;9.216;2022-07-29T09:19:34;7.33;;;5.60;;
14205;SDS011;7186;48.800;9.216;2022-07-29T09:22:01;6.30;;;5.70;;
14205;SDS011;7186;48.800;9.216;2022-07-29T09:24:28;7.77;;;5.53;;
14205;SDS011;7186;48.800;9.216;2022-07-29T09:27:01;7.30;;;5.93;;
14205;SDS011;7186;48.800;9.216;2022-07-29T09:29:27;8.57;;;5.73;;
14205;SDS011;7186;48.800;9.216;2022-07-29T09:31:53;9.23;;;6.30;;
14205;SDS011;7186;48.800;9.216;2022-07-29T09:34:23;8.00;;;6.10;;
14205;SDS011;7186;48.800;9.216;2022-07-29T09:36:49;6.90;;;5.50;;
14205;SDS011;7186;48.800;9.216;2022-07-29T09:39:15;7.90;;;5.47;;
14205;SDS011;7186;48.800;9.216;2022-07-29T09:41:49;7.47;;;5.60;;
14205;SDS011;7186;48.800;9.216;2022-07-29T09:44:14;6.70;;;5.77;;
14205;SDS011;7186;48.800;9.216;2022-07-29T09:46:40;7.93;;;5.20;;
14205;SDS011;7186;48.800;9.216;2022-07-29T09:49:10;6.40;;;5.40;;
14205;SDS011;7186;48.800;9.216;2022-07-29T09:51:36;7.83;;;5.50;;
14205;SDS011;7186;48.800;9.216;2022-07-29T09:54:02;7.50;;;5.60;;
14205;SDS011;7186;48.800;9.216;2022-07-29T09:56:39;6.03;;;5.27;;
14205;SDS011;7186;48.800;9.216;2022-07-29T09:59:07;7.97;;;5.60;;
14205;SDS011;7186;48.800;9.216;2022-07-29T10:01:33;9.27;;;5.40;;
14205;SDS011;7186;48.800;9.216;2022-07-29T10:03:59;8.50;;;5.43;;
14205;SDS011;7186;48.800;9.216;2022-07-29T10:06:24;7.97;;;6.03;;
14205;SDS011;7186;48.800;9.216;2022-07-29T10:08:49;8.43;;;5.33;;
14205;SDS011;7186;48.800;9.216;2022-07-29T10:11:18;7.27;;;5.30;;
14205;SDS011;7186;48.800;9.216;2022-07-29T10:13:44;8.97;;;5.67;;
14205;SDS011;7186;48.800;9.216;2022-07-29T10:16:10;8.10;;;5.60;;
14205;SDS011;7186;48.800;9.216;2022-07-29T10:18:37;6.33;;;5.70;;
14205;SDS011;7186;48.800;9.216;2022-07-29T10:21:03;6.03;;;5.33;;
14205;SDS011;7186;48.800;9.216;2022-07-29T10:23:29;6.07;;;5.47;;
14205;SDS011;7186;48.800;9.216;2022-07-29T10:25:54;12.23;;;6.03;;
14205;SDS011;7186;48.800;9.216;2022-07-29T10:28:20;5.90;;;5.33;;
14205;SDS011;7186;48.800;9.216;2022-07-29T10:30:45;7.80;;;6.17;;
14205;SDS011;7186;48.800;9.216;2022-07-29T10:43:41;8.47;;;5.67;;
14205;SDS011;7186;48.800;9.216;2022-07-29T10:46:07;6.93;;;6.20;;
14205;SDS011;7186;48.800;9.216;2022-07-29T10:48:33;6.73;;;6.13;;
14205;SDS011;7186;48.800;9.216;2022-07-29T10:50:59;9.23;;;6.47;;
14205;SDS011;7186;48.800;9.216;2022-07-29T10:56:22;9.17;;;6.33;;
14205;SDS011;7186;48.800;9.216;2022-07-29T10:58:57;14.67;;;6.40;;
14205;SDS011;7186;48.800;9.216;2022-07-29T11:01:33;11.23;;;5.53;;
14205;SDS011;7186;48.800;9.216;2022-07-29T11:03:58;7.33;;;5.80;;
14205;SDS011;7186;48.800;9.216;2022-07-29T11:06:23;10.30;;;6.00;;
14205;SDS011;7186;48.800;9.216;2022-07-29T11:09:14;6.83;;;5.73;;
14205;SDS011;7186;48.800;9.216;2022-07-29T11:11:35;10.10;;;5.90;;
14205;SDS011;7186;48.800;9.216;2022-07-29T11:14:01;9.00;;;6.97;;
14205;SDS011;7186;48.800;9.216;2022-07-29T11:16:31;9.87;;;7.37;;
14205;SDS011;7186;48.800;9.216;2022-07-29T11:21:40;14.47;;;9.33;;
14205;SDS011;7186;48.800;9.216;2022-07-29T11:24:19;12.57;;;8.73;;
14205;SDS011;7186;48.800;9.216;2022-07-29T11:26:46;13.03;;;8.40;;
14205;SDS011;7186;48.800;9.216;2022-07-29T11:29:30;10.87;;;7.80;;
14205;SDS011;7186;48.800;9.216;2022-07-29T11:32:08;11.33;;;8.23;;
14205;SDS011;7186;48.800;9.216;2022-07-29T11:34:33;11.30;;;7.83;;
14205;SDS011;7186;48.800;9.216;2022-07-29T11:39:32;11.30;;;7.53;;
14205;SDS011;7186;48.800;9.216;2022-07-29T11:44:53;10.13;;;7.50;;
14205;SDS011;7186;48.800;9.216;2022-07-29T11:47:19;11.57;;;8.00;;
14205;SDS011;7186;48.800;9.216;2022-07-29T11:49:45;13.13;;;7.30;;
14205;SDS011;7186;48.800;9.216;2022-07-29T11:52:10;9.67;;;6.87;;
14205;SDS011;7186;48.800;9.216;2022-07-29T11:54:36;7.70;;;6.90;;
14205;SDS011;7186;48.800;9.216;2022-07-29T11:57:01;5.80;;;5.27;;
14205;SDS011;7186;48.800;9.216;2022-07-29T11:59:27;6.87;;;4.60;;
14205;SDS011;7186;48.800;9.216;2022-07-29T12:01:54;7.63;;;4.40;;
14205;SDS011;7186;48.800;9.216;2022-07-29T12:04:19;8.23;;;4.20;;
14205;SDS011;7186;48.800;9.216;2022-07-29T12:06:49;9.67;;;4.50;;
14205;SDS011;7186;48.800;9.216;2022-07-29T12:09:14;7.60;;;4.30;;
14205;SDS011;7186;48.800;9.216;2022-07-29T12:11:39;7.30;;;3.57;;
14205;SDS011;7186;48.800;9.216;2022-07-29T12:14:04;5.73;;;2.93;;
14205;SDS011;7186;48.800;9.216;2022-07-29T12:16:36;5.00;;;3.27;;
14205;SDS011;7186;48.800;9.216;2022-07-29T12:19:02;7.93;;;4.10;;
14205;SDS011;7186;48.800;9.216;2022-07-29T12:21:28;5.33;;;3.70;;
14205;SDS011;7186;48.800;9.216;2022-07-29T12:23:54;4.03;;;3.50;;
14205;SDS011;7186;48.800;9.216;2022-07-29T12:26:19;4.20;;;3.70;;
14205;SDS011;7186;48.800;9.216;2022-07-29T12:28:45;4.47;;;3.63;;
14205;SDS011;7186;48.800;9.216;2022-07-29T12:31:13;7.57;;;4.10;;
14205;SDS011;7186;48.800;9.216;2022-07-29T12:33:38;4.77;;;3.40;;
14205;SDS011;7186;48.800;9.216;2022-07-29T12:36:04;4.37;;;3.73;;
14205;SDS011;7186;48.800;9.216;2022-07-29T12:38:29;4.53;;;3.70;;
14205;SDS011;7186;48.800;9.216;2022-07-29T12:40:54;4.90;;;3.77;;
14205;SDS011;7186;48.800;9.216;2022-07-29T12:43:20;8.93;;;3.37;;
14205;SDS011;7186;48.800;9.216;2022-07-29T12:46:28;6.20;;;3.57;;
14205;SDS011;7186;48.800;9.216;2022-07-29T12:48:35;5.40;;;3.50;;
14205;SDS011;7186;48.800;9.216;2022-07-29T12:51:02;3.70;;;3.30;;
14205;SDS011;7186;48.800;9.216;2022-07-29T12:53:27;4.83;;;3.37;;
14205;SDS011;7186;48.800;9.216;2022-07-29T12:55:54;4.30;;;3.50;;
14205;SDS011;7186;48.800;9.216;2022-07-29T12:58:38;3.67;;;3.37;;
14205;SDS011;7186;48.800;9.216;2022-07-29T13:01:11;4.63;;;3.87;;
14205;SDS011;7186;48.800;9.216;2022-07-29T13:06:26;4.17;;;3.77;;
14205;SDS011;7186;48.800;9.216;2022-07-29T13:11:30;5.23;;;4.00;;
14205;SDS011;7186;48.800;9.216;2022-07-29T13:13:55;6.43;;;3.80;;
14205;SDS011;7186;48.800;9.216;2022-07-29T13:16:21;4.33;;;3.30;;
14205;SDS011;7186;48.800;9.216;2022-07-29T13:18:46;7.87;;;3.90;;
14205;SDS011;7186;48.800;9.216;2022-07-29T13:21:13;4.93;;;4.43;;
14205;SDS011;7186;48.800;9.216;2022-07-29T13:23:39;6.30;;;4.60;;
14205;SDS011;7186;48.800;9.216;2022-07-29T13:26:05;8.70;;;4.60;;
14205;SDS011;7186;48.800;9.216;2022-07-29T13:28:30;6.93;;;5.13;;
14205;SDS011;7186;48.800;9.216;2022-07-29T13:30:55;4.87;;;4.20;;
14205;SDS011;7186;48.800;9.216;2022-07-29T13:33:20;7.87;;;4.63;;
14205;SDS011;7186;48.800;9.216;2022-07-29T13:35:46;7.37;;;5.13;;
14205;SDS011;7186;48.800;9.216;2022-07-29T13:38:12;7.47;;;5.17;;
14205;SDS011;7186;48.800;9.216;2022-07-29T13:40:37;8.27;;;5.17;;
14205;SDS011;7186;48.800;9.216;2022-07-29T13:43:02;8.60;;;4.97;;
14205;SDS011;7186;48.800;9.216;2022-07-29T13:45:28;6.93;;;5.70;;
14205;SDS011;7186;48.800;9.216;2022-07-29T13:47:53;11.17;;;5.87;;
14205;SDS011;7186;48.800;9.216;2022-07-29T13:50:18;6.87;;;5.47;;
14205;SDS011;7186;48.800;9.216;2022-07-29T13:52:43;8.77;;;6.30;;
14205;SDS011;7186;48.800;9.216;2022-07-29T13:55:09;11.50;;;6.53;;
14205;SDS011;7186;48.800;9.216;2022-07-29T13:57:34;8.83;;;6.33;;
14205;SDS011;7186;48.800;9.216;2022-07-29T14:00:00;10.03;;;7.97;;
14205;SDS011;7186;48.800;9.216;2022-07-29T14:02:25;12.10;;;7.00;;
14205;SDS011;7186;48.800;9.216;2022-07-29T14:04:50;10.03;;;6.57;;
14205;SDS011;7186;48.800;9.216;2022-07-29T14:07:16;10.00;;;7.03;;
14205;SDS011;7186;48.800;9.216;2022-07-29T14:09:41;9.30;;;6.87;;
14205;SDS011;7186;48.800;9.216;2022-07-29T14:12:06;12.80;;;7.63;;
14205;SDS011;7186;48.800;9.216;2022-07-29T14:14:32;10.10;;;6.67;;
14205;SDS011;7186;48.800;9.216;2022-07-29T14:16:57;9.70;;;6.93;;
14205;SDS011;7186;48.800;9.216;2022-07-29T14:19:22;8.10;;;6.80;;
14205;SDS011;7186;48.800;9.216;2022-07-29T14:21:48;10.03;;;7.07;;
14205;SDS011;7186;48.800;9.216;2022-07-29T14:24:13;9.23;;;7.67;;
14205;SDS011;7186;48.800;9.216;2022-07-29T14:26:38;7.90;;;6.70;;
14205;SDS011;7186;48.800;9.216;2022-07-29T14:29:03;8.63;;;7.43;;
14205;SDS011;7186;48.800;9.216;2022-07-29T14:31:29;11.10;;;7.10;;
14205;SDS011;7186;48.800;9.216;2022-07-29T14:33:54;8.67;;;7.67;;
14205;SDS011;7186;48.800;9.216;2022-07-29T14:36:19;9.30;;;7.60;;
14205;SDS011;7186;48.800;9.216;2022-07-29T14:38:44;12.37;;;7.90;;
14205;SDS011;7186;48.800;9.216;2022-07-29T14:41:10;9.37;;;7.27;;
14205;SDS011;7186;48.800;9.216;2022-07-29T14:43:35;9.73;;;7.70;;
14205;SDS011;7186;48.800;9.216;2022-07-29T14:46:00;9.13;;;7.33;;
14205;SDS011;7186;48.800;9.216;2022-07-29T14:48:26;9.10;;;6.70;;
14205;SDS011;7186;48.800;9.216;2022-07-29T14:50:51;9.23;;;7.50;;
14205;SDS011;7186;48.800;9.216;2022-07-29T14:53:16;9.43;;;7.33;;
14205;SDS011;7186;48.800;9.216;2022-07-29T14:55:41;7.73;;;6.93;;
14205;SDS011;7186;48.800;9.216;2022-07-29T14:58:07;8.23;;;6.83;;
14205;SDS011;7186;48.800;9.216;2022-07-29T15:00:32;8.87;;;6.67;;
14205;SDS011;7186;48.800;9.216;2022-07-29T15:02:58;10.00;;;7.40;;
14205;SDS011;7186;48.800;9.216;2022-07-29T15:05:24;10.10;;;8.37;;
14205;SDS011;7186;48.800;9.216;2022-07-29T15:07:49;9.30;;;7.20;;
14205;SDS011;7186;48.800;9.216;2022-07-29T15:10:15;8.97;;;7.13;;
14205;SDS011;7186;48.800;9.216;2022-07-29T15:12:40;9.63;;;7.07;;
14205;SDS011;7186;48.800;9.216;2022-07-29T15:15:05;8.07;;;7.27;;
14205;SDS011;7186;48.800;9.216;2022-07-29T15:17:32;10.57;;;7.80;;
14205;SDS011;7186;48.800;9.216;2022-07-29T15:19:57;10.23;;;7.90;;
14205;SDS011;7186;48.800;9.216;2022-07-29T15:22:22;12.00;;;8.57;;
14205;SDS011;7186;48.800;9.216;2022-07-29T15:24:48;9.40;;;8.37;;
14205;SDS011;7186;48.800;9.216;2022-07-29T15:27:13;10.23;;;7.87;;
14205;SDS011;7186;48.800;9.216;2022-07-29T15:29:41;16.20;;;14.50;;
14205;SDS011;7186;48.800;9.216;2022-07-29T15:32:07;16.67;;;13.60;;
14205;SDS011;7186;48.800;9.216;2022-07-29T15:34:32;16.30;;;12.50;;
14205;SDS011;7186;48.800;9.216;2022-07-29T15:36:58;12.13;;;10.83;;
14205;SDS011;7186;48.800;9.216;2022-07-29T15:39:23;11.87;;;10.47;;
14205;SDS011;7186;48.800;9.216;2022-07-29T15:41:49;10.47;;;8.27;;
14205;SDS011;7186;48.800;9.216;2022-07-29T15:44:14;10.67;;;8.57;;
14205;SDS011;7186;48.800;9.216;2022-07-29T15:46:39;10.93;;;7.77;;
14205;SDS011;7186;48.800;9.216;2022-07-29T15:49:23;11.10;;;8.33;;